Ana Sayfa
METAR-TAF:

METAR-TAF

Havaalanları :

Tiflis Uluslararası Havalimanı

Tiflis, Gürcistan

Enlem: 41-40-09N, Boylam: 044-57-17E, yükseklik: 495 m

Güncel hava durumu gözlemi

Rapor saat 16:00 UTC de 28 dakika önce yapıldı.
Rüzgar doğu/kuzeydoğudan 8 kt
Sıcaklık 27°C
Nem 24%
Basınç 1020 hPa
Görüş mesafesi 10 km veya daha fazla
5000 ft yükseklikte parçalı bulutlu, Kümülonimbus.

METAR: UGTB 231600Z 06008KT 9999 SCT050CB 27/05 Q1020 NOSIG

Saat: 20:28 (16:28 UTC)

Tahmin

Rapor saat 11:00 UTC de 5 saat ve 28 dakika önce yapıldı.
Ayın 23'si saat 12 UTC'den ayın 24'si saat 12 UTC'ye kadar geçerli Tahmin
Rüzgar güneydoğudan 10 kt
Görüş mesafesi 10 km veya daha fazla
5000 ft yükseklikte parçalı bulutlu, Kümülonimbus.
Geçici
ayın 23'si saat 19 UTC'den ayın 24'si saat 02 UTC'ye kadar
Rüzgar kuzeydoğudan 9 kt

TAF: UGTB 231100Z 2312/2412 13010KT 9999 SCT050CB TX31/2412Z TN19/2402Z TEMPO 2319/2402 05009KT

4.000'den fazla havaalanı için hava durumu gözlemleri ve tahminleri (METAR ve TAF raporları).

Kullanılabilir istasyonlar harita üzerinde sarı ve kırmızı noktalarla gösterilir.

İstasyonun adını görmek için fareyi noktanın üzerinde gezdirin.

Sonrasında hava gözlem ve tahminlerini görmek için tıklayın.

Haritayı değiştirmek için: yaklaştırmak için siyah artı işaretli yeşil düğmeye ve uzaklaştırmak için de eksi işaretli düğmeye hızla tıklayın; bitişik haritalar için yeşil okları kullanın.


METAR-TAF: